createdAt,value
2022-11-10T00:00:46.334Z,92.49
2022-11-10T00:01:46.332Z,92.38
2022-11-10T00:02:46.331Z,92.38
2022-11-10T00:03:46.391Z,92.38
2022-11-10T00:04:46.287Z,92.38
2022-11-10T00:05:46.297Z,92.28
2022-11-10T00:06:46.305Z,92.28
2022-11-10T00:07:46.276Z,92.38
2022-11-10T00:08:46.252Z,92.38
2022-11-10T00:09:46.316Z,92.49
2022-11-10T00:10:46.242Z,92.59
2022-11-10T00:11:46.237Z,92.59
2022-11-10T00:12:46.216Z,92.69
2022-11-10T00:13:46.213Z,92.69
2022-11-10T00:14:46.173Z,92.83
2022-11-10T00:15:46.154Z,92.74
2022-11-10T00:16:46.220Z,92.83
2022-11-10T00:17:46.272Z,92.94
2022-11-10T00:18:46.144Z,92.94
2022-11-10T00:19:46.136Z,93.04
2022-11-10T00:20:46.107Z,92.94
2022-11-10T00:21:46.101Z,92.94
2022-11-10T00:22:47.055Z,92.94
2022-11-10T00:23:46.096Z,93.04
2022-11-10T00:24:46.062Z,93.00
2022-11-10T00:25:46.997Z,92.90
2022-11-10T00:26:46.070Z,92.79
2022-11-10T00:27:46.981Z,92.79
2022-11-10T00:28:47.008Z,92.79
2022-11-10T00:29:46.029Z,92.79
2022-11-10T00:30:47.000Z,92.79
2022-11-10T00:31:45.978Z,92.79
2022-11-10T00:32:45.978Z,92.79
2022-11-10T00:33:45.964Z,92.69
2022-11-10T00:34:45.948Z,92.69
2022-11-10T00:35:45.978Z,92.69
2022-11-10T00:36:46.010Z,92.59
2022-11-10T00:37:45.913Z,92.59
2022-11-10T00:38:45.900Z,92.59
2022-11-10T00:39:45.890Z,92.59
2022-11-10T00:40:45.919Z,92.59
2022-11-10T00:41:45.902Z,92.59
2022-11-10T00:42:45.850Z,92.59
2022-11-10T00:43:45.849Z,92.59
2022-11-10T00:44:45.858Z,92.59
2022-11-10T00:45:45.834Z,92.59
2022-11-10T00:46:45.827Z,92.59
2022-11-10T00:47:45.861Z,92.59
2022-11-10T00:48:45.803Z,92.49
2022-11-10T00:49:45.803Z,92.59
2022-11-10T00:50:45.792Z,92.49
2022-11-10T00:51:45.801Z,92.59
2022-11-10T00:52:46.015Z,92.59
2022-11-10T00:53:45.735Z,92.59
2022-11-10T00:54:45.760Z,92.59
2022-11-10T00:55:45.714Z,92.59
2022-11-10T00:56:45.740Z,92.49
2022-11-10T00:57:45.695Z,92.49
2022-11-10T00:58:45.745Z,92.49
2022-11-10T00:59:45.708Z,92.49
2022-11-10T01:00:45.692Z,92.59
2022-11-10T01:01:45.676Z,92.59
2022-11-10T01:02:45.684Z,92.69
2022-11-10T01:03:45.648Z,92.59
2022-11-10T01:04:45.646Z,92.59
2022-11-10T01:05:45.613Z,92.59
2022-11-10T01:06:45.613Z,92.59
2022-11-10T01:07:45.609Z,92.59
2022-11-10T01:08:45.598Z,92.59
2022-11-10T01:09:45.559Z,92.69
2022-11-10T01:10:45.577Z,92.79
2022-11-10T01:11:45.530Z,92.79
2022-11-10T01:12:45.551Z,92.90
2022-11-10T01:13:45.513Z,92.90
2022-11-10T01:14:45.519Z,92.90
2022-11-10T01:15:45.489Z,92.90
2022-11-10T01:16:45.480Z,92.90
2022-11-10T01:17:45.481Z,92.79
2022-11-10T01:18:45.474Z,92.90
2022-11-10T01:19:45.479Z,92.90
2022-11-10T01:20:45.448Z,92.90
2022-11-10T01:21:45.421Z,92.90
2022-11-10T01:22:45.423Z,92.79
2022-11-10T01:23:45.426Z,92.79
2022-11-10T01:24:45.418Z,92.90
2022-11-10T01:25:45.381Z,92.79
2022-11-10T01:26:45.361Z,92.79
2022-11-10T01:27:45.382Z,92.69
2022-11-10T01:28:45.350Z,92.59
2022-11-10T01:29:45.359Z,92.59
2022-11-10T01:30:45.318Z,92.59
2022-11-10T01:31:45.334Z,92.49
2022-11-10T01:32:45.305Z,92.49
2022-11-10T01:33:45.296Z,92.59
2022-11-10T01:34:45.364Z,92.59
2022-11-10T01:35:45.293Z,92.69
2022-11-10T01:36:45.319Z,92.59
2022-11-10T01:37:45.253Z,92.69
2022-11-10T01:38:45.264Z,92.79
2022-11-10T01:39:45.233Z,92.90
2022-11-10T01:40:45.276Z,92.90
2022-11-10T01:41:45.195Z,92.79
2022-11-10T01:42:45.215Z,92.79
2022-11-10T01:43:45.198Z,92.79
2022-11-10T01:44:45.182Z,92.79
2022-11-10T01:45:45.158Z,92.79
2022-11-10T01:46:45.151Z,92.79
2022-11-10T01:47:45.170Z,92.79
2022-11-10T01:48:45.121Z,92.79
2022-11-10T01:49:45.128Z,92.79
2022-11-10T01:50:45.098Z,92.79
2022-11-10T01:51:45.089Z,92.79
2022-11-10T01:52:45.078Z,92.79
2022-11-10T01:53:45.104Z,92.69
2022-11-10T01:54:45.057Z,92.79
2022-11-10T01:55:45.055Z,92.79
2022-11-10T01:56:45.049Z,92.90
2022-11-10T01:57:45.018Z,92.79
2022-11-10T01:58:45.021Z,92.90
2022-11-10T01:59:45.043Z,92.90
2022-11-10T02:00:45.081Z,92.90
2022-11-10T02:01:45.046Z,92.79
2022-11-10T02:02:44.972Z,92.79
2022-11-10T02:03:44.963Z,92.79
2022-11-10T02:04:44.951Z,92.90
2022-11-10T02:05:44.971Z,92.90
2022-11-10T02:06:44.959Z,92.90
2022-11-10T02:07:44.907Z,92.79
2022-11-10T02:08:44.902Z,92.79
2022-11-10T02:09:44.896Z,92.79
2022-11-10T02:10:44.902Z,92.69
2022-11-10T02:11:44.893Z,92.79
2022-11-10T02:12:44.910Z,92.69
2022-11-10T02:13:44.842Z,92.79
2022-11-10T02:14:44.834Z,92.79
2022-11-10T02:15:44.818Z,92.79
2022-11-10T02:16:44.806Z,92.94
2022-11-10T02:17:44.824Z,92.90
2022-11-10T02:18:44.800Z,92.94
2022-11-10T02:19:44.784Z,92.94
2022-11-10T02:20:44.763Z,92.94
2022-11-10T02:21:44.755Z,92.94
2022-11-10T02:22:44.946Z,92.94
2022-11-10T02:23:44.746Z,92.94
2022-11-10T02:24:44.727Z,92.94
2022-11-10T02:25:44.736Z,93.04
2022-11-10T02:26:44.739Z,93.04
2022-11-10T02:27:44.700Z,93.04
2022-11-10T02:28:44.712Z,92.94
2022-11-10T02:29:44.686Z,93.04
2022-11-10T02:30:44.660Z,93.04
2022-11-10T02:31:44.662Z,93.04
2022-11-10T02:32:44.647Z,93.15
2022-11-10T02:33:44.607Z,93.15
2022-11-10T02:34:45.553Z,93.15
2022-11-10T02:35:44.610Z,93.25
2022-11-10T02:36:44.613Z,93.35
2022-11-10T02:37:44.568Z,93.35
2022-11-10T02:38:44.561Z,93.45
2022-11-10T02:39:44.569Z,93.45
2022-11-10T02:40:44.602Z,93.45
2022-11-10T02:41:44.541Z,93.45
2022-11-10T02:42:44.510Z,93.55
2022-11-10T02:43:44.505Z,93.45
2022-11-10T02:44:44.506Z,93.55
2022-11-10T02:45:44.512Z,93.55
2022-11-10T02:46:44.471Z,93.70
2022-11-10T02:47:44.452Z,93.66
2022-11-10T02:48:44.441Z,93.70
2022-11-10T02:49:44.435Z,93.70
2022-11-10T02:50:44.413Z,93.70
2022-11-10T02:51:44.423Z,93.76
2022-11-10T02:52:44.402Z,93.76
2022-11-10T02:53:44.395Z,93.76
2022-11-10T02:54:44.404Z,93.76
2022-11-10T02:55:44.375Z,93.55
2022-11-10T02:56:44.382Z,93.45
2022-11-10T02:57:44.347Z,93.45
2022-11-10T02:58:44.369Z,93.35
2022-11-10T02:59:44.345Z,93.45
2022-11-10T03:00:44.314Z,93.45
2022-11-10T03:01:44.394Z,93.45
2022-11-10T03:02:44.348Z,93.45
2022-11-10T03:03:44.279Z,93.45
2022-11-10T03:04:45.222Z,93.55
2022-11-10T03:05:44.265Z,93.66
2022-11-10T03:06:44.280Z,93.66
2022-11-10T03:07:44.234Z,93.66
2022-11-10T03:08:44.240Z,93.66
2022-11-10T03:09:44.217Z,93.76
2022-11-10T03:10:44.197Z,93.80
2022-11-10T03:11:44.242Z,93.86
2022-11-10T03:12:44.184Z,93.80
2022-11-10T03:14:00.213Z,93.76
2022-11-10T03:14:45.147Z,93.76
2022-11-10T03:15:44.157Z,93.76
2022-11-10T03:16:44.128Z,93.66
2022-11-10T03:17:44.148Z,93.66
2022-11-10T03:18:44.108Z,93.66
2022-11-10T03:19:44.099Z,93.66
2022-11-10T03:20:44.119Z,93.66
2022-11-10T03:21:44.113Z,93.66
2022-11-10T03:22:44.066Z,93.66
2022-11-10T03:23:44.055Z,93.66
2022-11-10T03:24:44.100Z,93.66
2022-11-10T03:25:44.054Z,93.66
2022-11-10T03:26:44.025Z,93.55
2022-11-10T03:27:44.001Z,93.55
2022-11-10T03:28:43.981Z,93.66
2022-11-10T03:29:43.988Z,93.66
2022-11-10T03:30:43.970Z,93.55
2022-11-10T03:31:44.956Z,93.66
2022-11-10T03:32:43.943Z,93.55
2022-11-10T03:33:43.937Z,93.55
2022-11-10T03:34:43.924Z,93.55
2022-11-10T03:35:43.932Z,93.66
2022-11-10T03:36:43.915Z,93.66
2022-11-10T03:37:43.951Z,93.66
2022-11-10T03:38:43.893Z,93.66
2022-11-10T03:39:43.895Z,93.55
2022-11-10T03:41:17.070Z,93.55
2022-11-10T03:41:44.853Z,93.66
2022-11-10T03:42:43.825Z,93.66
2022-11-10T03:43:43.849Z,93.66
2022-11-10T03:44:43.836Z,93.66
2022-11-10T03:45:43.816Z,93.66
2022-11-10T03:46:43.886Z,93.76
2022-11-10T03:47:43.805Z,93.66
2022-11-10T03:48:47.399Z,93.66
2022-11-10T03:49:44.766Z,93.66
2022-11-10T03:50:43.763Z,93.66
2022-11-10T03:51:43.730Z,93.76
2022-11-10T03:52:43.726Z,93.86
2022-11-10T03:53:43.740Z,93.86
2022-11-10T03:54:43.717Z,93.76
2022-11-10T03:55:43.730Z,93.86
2022-11-10T03:56:43.680Z,93.86
2022-11-10T03:57:43.678Z,93.96
2022-11-10T03:58:43.680Z,93.96
2022-11-10T03:59:43.682Z,94.07
2022-11-10T04:00:43.629Z,94.07
2022-11-10T04:01:43.698Z,93.96
2022-11-10T04:02:43.613Z,94.01
2022-11-10T04:03:46.282Z,93.96
2022-11-10T04:04:45.551Z,94.11
2022-11-10T04:05:43.582Z,94.11
2022-11-10T04:06:43.599Z,94.11
2022-11-10T04:07:43.551Z,94.11
2022-11-10T04:08:43.533Z,94.11
2022-11-10T04:09:43.549Z,94.21
2022-11-10T04:10:43.522Z,94.11
2022-11-10T04:11:43.516Z,94.11
2022-11-10T04:12:43.509Z,94.21
2022-11-10T04:13:43.515Z,94.21
2022-11-10T04:14:43.481Z,94.21
2022-11-10T04:15:43.483Z,94.32
2022-11-10T04:16:43.460Z,94.32
2022-11-10T04:17:43.471Z,94.42
2022-11-10T04:18:43.437Z,94.42
2022-11-10T04:19:43.449Z,94.42
2022-11-10T04:20:43.417Z,94.42
2022-11-10T04:21:44.899Z,94.42
2022-11-10T04:22:43.455Z,94.42
2022-11-10T04:23:43.393Z,94.32
2022-11-10T04:24:43.364Z,94.32
2022-11-10T04:25:43.384Z,94.42
2022-11-10T04:26:43.334Z,94.42
2022-11-10T04:27:43.325Z,94.42
2022-11-10T04:28:43.363Z,94.52
2022-11-10T04:29:43.301Z,94.62
2022-11-10T04:30:43.289Z,94.62
2022-11-10T04:31:43.297Z,94.62
2022-11-10T04:32:43.285Z,94.62
2022-11-10T04:33:43.306Z,94.62
2022-11-10T04:34:43.230Z,94.73
2022-11-10T04:35:43.266Z,94.62
2022-11-10T04:36:43.217Z,94.62
2022-11-10T04:37:43.208Z,94.73
2022-11-10T04:38:43.210Z,94.73
2022-11-10T04:39:43.194Z,94.77
2022-11-10T04:40:43.168Z,94.77
2022-11-10T04:41:43.187Z,94.87
2022-11-10T04:42:43.149Z,94.83
2022-11-10T04:43:43.148Z,94.83
2022-11-10T04:44:43.148Z,94.83
2022-11-10T04:45:43.123Z,94.83
2022-11-10T04:46:43.101Z,94.83
2022-11-10T04:47:43.091Z,94.83
2022-11-10T04:48:43.101Z,94.73
2022-11-10T04:49:43.084Z,94.73
2022-11-10T04:50:43.077Z,94.62
2022-11-10T04:51:43.076Z,94.77
2022-11-10T04:52:43.038Z,94.77
2022-11-10T04:53:44.040Z,94.77
2022-11-10T04:54:43.014Z,94.87
2022-11-10T04:55:43.012Z,94.87
2022-11-10T04:56:42.993Z,94.87
2022-11-10T04:57:42.991Z,94.98
2022-11-10T04:58:42.971Z,95.07
2022-11-10T04:59:43.012Z,95.18
2022-11-10T05:00:43.024Z,95.18
2022-11-10T05:01:42.970Z,95.18
2022-11-10T05:02:42.954Z,95.39
2022-11-10T05:03:42.918Z,95.28
2022-11-10T05:04:42.915Z,95.39
2022-11-10T05:05:42.941Z,95.39
2022-11-10T05:06:42.934Z,95.39
2022-11-10T05:07:42.908Z,95.49
2022-11-10T05:08:42.861Z,95.49
2022-11-10T05:09:42.851Z,95.49
2022-11-10T05:10:42.866Z,95.59
2022-11-10T05:11:42.827Z,95.59
2022-11-10T05:12:42.838Z,95.69
2022-11-10T05:13:42.801Z,95.69
2022-11-10T05:14:42.799Z,95.84
2022-11-10T05:15:42.822Z,95.90
2022-11-10T05:16:42.777Z,95.90
2022-11-10T05:17:42.767Z,95.90
2022-11-10T05:18:42.760Z,96.10
2022-11-10T05:19:42.744Z,96.00
2022-11-10T05:20:42.750Z,96.10
2022-11-10T05:21:42.759Z,96.10
2022-11-10T05:22:47.946Z,96.10
2022-11-10T05:23:43.700Z,96.10
2022-11-10T05:24:42.694Z,96.00
2022-11-10T05:25:42.663Z,96.00
2022-11-10T05:26:43.609Z,96.00
2022-11-10T05:27:42.840Z,96.10
2022-11-10T05:28:42.641Z,96.10
2022-11-10T05:29:42.631Z,96.10
2022-11-10T05:30:42.620Z,96.10
2022-11-10T05:31:42.604Z,96.00
2022-11-10T05:32:42.643Z,96.00
2022-11-10T05:33:42.633Z,95.90
2022-11-10T05:34:42.571Z,95.90
2022-11-10T05:35:42.574Z,95.79
2022-11-10T05:36:42.561Z,95.79
2022-11-10T05:37:42.546Z,95.79
2022-11-10T05:38:43.854Z,95.79
2022-11-10T05:39:42.551Z,95.69
2022-11-10T05:40:42.518Z,95.79
2022-11-10T05:41:42.498Z,95.69
2022-11-10T05:42:42.487Z,95.69
2022-11-10T05:43:42.494Z,95.69
2022-11-10T05:44:42.492Z,95.79
2022-11-10T05:45:42.455Z,95.90
2022-11-10T05:46:42.469Z,95.79
2022-11-10T05:47:42.434Z,95.79
2022-11-10T05:48:43.387Z,95.79
2022-11-10T05:49:42.446Z,95.69
2022-11-10T05:50:42.392Z,95.69
2022-11-10T05:51:43.343Z,95.69
2022-11-10T05:52:47.596Z,95.69
2022-11-10T05:53:43.355Z,95.69
2022-11-10T05:54:42.337Z,95.79
2022-11-10T05:55:42.356Z,95.69
2022-11-10T05:56:42.320Z,95.79
2022-11-10T05:57:42.342Z,95.79
2022-11-10T05:58:42.300Z,95.79
2022-11-10T05:59:42.291Z,95.79
2022-11-10T06:00:42.309Z,95.90
2022-11-10T06:01:42.266Z,95.90
2022-11-10T06:02:42.252Z,95.90
2022-11-10T06:03:42.273Z,96.00
2022-11-10T06:04:42.255Z,96.00
2022-11-10T06:05:42.229Z,95.90
2022-11-10T06:06:42.285Z,95.90
2022-11-10T06:07:42.228Z,95.90
2022-11-10T06:08:42.194Z,95.90
2022-11-10T06:09:42.183Z,95.90
2022-11-10T06:10:42.179Z,95.90
2022-11-10T06:11:42.181Z,96.00
2022-11-10T06:12:42.169Z,95.90
2022-11-10T06:13:42.156Z,96.00
2022-11-10T06:14:42.153Z,95.90
2022-11-10T06:15:47.562Z,95.90
2022-11-10T06:16:43.100Z,95.90
2022-11-10T06:17:42.111Z,95.90
2022-11-10T06:18:42.093Z,95.90
2022-11-10T06:19:42.074Z,95.79
2022-11-10T06:20:42.062Z,95.79
2022-11-10T06:21:42.033Z,95.90
2022-11-10T06:22:42.048Z,95.90
2022-11-10T06:23:42.065Z,95.90
2022-11-10T06:24:42.005Z,95.90
2022-11-10T06:25:41.991Z,95.90
2022-11-10T06:26:42.035Z,95.79
2022-11-10T06:27:41.963Z,95.69
2022-11-10T06:28:41.976Z,95.69
2022-11-10T06:29:41.953Z,95.69
2022-11-10T06:30:41.958Z,95.69
2022-11-10T06:31:41.938Z,95.59
2022-11-10T06:32:41.963Z,95.59
2022-11-10T06:33:41.919Z,95.49
2022-11-10T06:34:41.905Z,95.59
2022-11-10T06:35:41.894Z,95.49
2022-11-10T06:36:41.901Z,95.49
2022-11-10T06:37:41.881Z,95.49
2022-11-10T06:38:41.854Z,95.59
2022-11-10T06:39:41.846Z,95.49
2022-11-10T06:40:41.832Z,95.49
2022-11-10T06:41:41.827Z,95.49
2022-11-10T06:42:42.786Z,95.49
2022-11-10T06:43:41.816Z,95.49
2022-11-10T06:44:41.782Z,95.49
2022-11-10T06:45:41.765Z,95.49
2022-11-10T06:46:42.523Z,95.39
2022-11-10T06:47:41.772Z,95.34
2022-11-10T06:48:41.740Z,95.34
2022-11-10T06:49:41.912Z,95.24
2022-11-10T06:50:41.708Z,95.28
2022-11-10T06:51:41.761Z,95.28
2022-11-10T06:52:41.733Z,95.28
2022-11-10T06:53:41.677Z,95.39
2022-11-10T06:54:41.896Z,95.39
2022-11-10T06:55:41.654Z,95.49
2022-11-10T06:56:41.790Z,95.59
2022-11-10T06:57:41.645Z,95.69
2022-11-10T06:58:41.655Z,95.90
2022-11-10T06:59:41.845Z,95.90
2022-11-10T07:00:41.656Z,95.90
2022-11-10T07:01:42.613Z,95.90
2022-11-10T07:02:41.894Z,95.90
2022-11-10T07:04:05.215Z,96.10
2022-11-10T07:04:42.636Z,96.20
2022-11-10T07:05:41.549Z,96.20
2022-11-10T07:06:41.571Z,96.20
2022-11-10T07:07:41.523Z,96.20
2022-11-10T07:08:41.630Z,96.31
2022-11-10T07:09:41.535Z,96.41
2022-11-10T07:10:41.492Z,96.31
2022-11-10T07:11:42.424Z,96.41
2022-11-10T07:12:41.516Z,96.41
2022-11-10T07:13:41.489Z,96.31
2022-11-10T07:14:41.447Z,96.31
2022-11-10T07:15:41.436Z,96.31
2022-11-10T07:16:41.465Z,96.31
2022-11-10T07:17:42.431Z,96.26
2022-11-10T07:18:41.407Z,96.16
2022-11-10T07:19:41.850Z,96.06
2022-11-10T07:20:42.334Z,96.06
2022-11-10T07:21:41.376Z,95.95
2022-11-10T07:22:41.377Z,95.75
2022-11-10T07:23:41.339Z,95.54
2022-11-10T07:24:41.360Z,95.44
2022-11-10T07:25:41.320Z,95.34
2022-11-10T07:26:41.324Z,95.24
2022-11-10T07:27:41.300Z,95.24
2022-11-10T07:28:41.313Z,95.24
2022-11-10T07:29:41.298Z,95.24
2022-11-10T07:30:41.289Z,95.14
2022-11-10T07:31:41.260Z,95.03
2022-11-10T07:32:41.249Z,95.14
2022-11-10T07:33:41.748Z,95.14
2022-11-10T07:34:41.543Z,95.03
2022-11-10T07:35:41.563Z,95.03
2022-11-10T07:36:41.205Z,94.93
2022-11-10T07:37:41.181Z,94.93
2022-11-10T07:38:41.211Z,95.03
2022-11-10T07:39:41.180Z,94.93
2022-11-10T07:40:41.150Z,94.93
2022-11-10T07:41:41.152Z,94.93
2022-11-10T07:42:41.297Z,94.93
2022-11-10T07:43:41.131Z,94.89
2022-11-10T07:44:41.104Z,94.78
2022-11-10T07:45:41.115Z,94.58
2022-11-10T07:46:41.277Z,94.58
2022-11-10T07:47:41.124Z,94.48
2022-11-10T07:48:41.077Z,94.48
2022-11-10T07:49:41.083Z,94.58
2022-11-10T07:50:41.063Z,94.48
2022-11-10T07:51:41.044Z,94.48
2022-11-10T07:52:41.021Z,94.37
2022-11-10T07:53:41.023Z,94.27
2022-11-10T07:54:40.993Z,94.17
2022-11-10T07:55:41.005Z,94.17
2022-11-10T07:56:40.997Z,94.12
2022-11-10T07:57:40.969Z,94.02
2022-11-10T07:58:40.966Z,93.92
2022-11-10T07:59:40.971Z,93.92
2022-11-10T08:00:40.940Z,93.92
2022-11-10T08:01:41.041Z,93.82
2022-11-10T08:02:40.895Z,93.82
2022-11-10T08:03:40.894Z,93.82
2022-11-10T08:04:40.897Z,93.82
2022-11-10T08:05:40.886Z,93.71
2022-11-10T08:06:41.010Z,93.62
2022-11-10T08:07:40.923Z,93.51
2022-11-10T08:08:40.851Z,93.41
2022-11-10T08:09:40.826Z,93.37
2022-11-10T08:10:40.835Z,93.26
2022-11-10T08:11:40.802Z,93.26
2022-11-10T08:12:40.800Z,93.26
2022-11-10T08:13:41.750Z,93.16
2022-11-10T08:14:41.329Z,92.96
2022-11-10T08:15:40.812Z,92.75
2022-11-10T08:16:41.717Z,92.60
2022-11-10T08:17:40.780Z,92.40
2022-11-10T08:18:40.933Z,92.40
2022-11-10T08:19:40.785Z,92.30
2022-11-10T08:20:40.713Z,92.30
2022-11-10T08:21:40.694Z,92.19
2022-11-10T08:22:40.699Z,92.10
2022-11-10T08:23:40.663Z,92.10
2022-11-10T08:24:40.669Z,91.99
2022-11-10T08:25:41.453Z,91.99
2022-11-10T08:26:40.633Z,91.89
2022-11-10T08:27:40.667Z,91.89
2022-11-10T08:28:40.611Z,91.95
2022-11-10T08:29:40.804Z,91.95
2022-11-10T08:30:40.595Z,91.85
2022-11-10T08:31:40.589Z,91.74
2022-11-10T08:32:40.579Z,91.74
2022-11-10T08:33:40.595Z,91.33
2022-11-10T08:34:40.551Z,91.33
2022-11-10T08:35:40.593Z,91.23
2022-11-10T08:36:40.533Z,91.33
2022-11-10T08:37:40.548Z,91.33
2022-11-10T08:38:40.530Z,91.23
2022-11-10T08:39:40.484Z,91.03
2022-11-10T08:40:40.525Z,90.92
2022-11-10T08:41:40.454Z,90.78
2022-11-10T08:42:40.472Z,90.78
2022-11-10T08:43:40.462Z,90.68
2022-11-10T08:44:40.436Z,90.58
2022-11-10T08:45:40.489Z,90.58
2022-11-10T08:46:40.456Z,90.58
2022-11-10T08:47:40.401Z,90.47
2022-11-10T08:48:40.398Z,90.68
2022-11-10T08:49:41.327Z,90.78
2022-11-10T08:50:40.385Z,90.68
2022-11-10T08:51:40.913Z,90.58
2022-11-10T08:52:40.474Z,90.68
2022-11-10T08:53:41.796Z,90.58
2022-11-10T08:54:40.323Z,90.58
2022-11-10T08:55:40.415Z,90.43
2022-11-10T08:56:40.342Z,90.23
2022-11-10T08:57:40.510Z,90.12
2022-11-10T08:58:50.164Z,90.12
2022-11-10T08:59:41.265Z,90.12
2022-11-10T09:00:40.259Z,90.02
2022-11-10T09:01:40.250Z,89.92
2022-11-10T09:02:40.251Z,89.92
2022-11-10T09:03:40.412Z,89.78
2022-11-10T09:04:40.308Z,89.88
2022-11-10T09:05:40.226Z,90.08
2022-11-10T09:06:40.776Z,90.29
2022-11-10T09:07:40.212Z,90.19
2022-11-10T09:08:40.241Z,90.08
2022-11-10T09:09:40.142Z,89.73
2022-11-10T09:10:40.166Z,89.32
2022-11-10T09:11:40.133Z,89.02
2022-11-10T09:12:40.547Z,88.82
2022-11-10T09:13:40.125Z,88.61
2022-11-10T09:14:40.137Z,88.61
2022-11-10T09:15:40.099Z,88.71
2022-11-10T09:16:40.093Z,88.61
2022-11-10T09:17:40.064Z,88.31
2022-11-10T09:18:40.066Z,88.20
2022-11-10T09:19:40.103Z,88.17
2022-11-10T09:20:40.086Z,88.26
2022-11-10T09:21:40.036Z,88.17
2022-11-10T09:22:40.005Z,88.17
2022-11-10T09:23:39.985Z,88.26
2022-11-10T09:24:39.976Z,88.26
2022-11-10T09:25:40.010Z,88.26
2022-11-10T09:26:40.017Z,87.82
2022-11-10T09:27:39.968Z,87.61
2022-11-10T09:28:39.940Z,87.51
2022-11-10T09:29:39.949Z,87.51
2022-11-10T09:30:39.919Z,87.30
2022-11-10T09:31:39.940Z,87.20
2022-11-10T09:32:39.926Z,87.10
2022-11-10T09:33:39.949Z,87.06
2022-11-10T09:34:39.868Z,87.00
2022-11-10T09:35:39.870Z,86.96
2022-11-10T09:36:39.871Z,86.86
2022-11-10T09:37:39.844Z,86.55
2022-11-10T09:38:39.827Z,86.55
2022-11-10T09:39:39.842Z,86.65
2022-11-10T09:40:39.802Z,86.65
2022-11-10T09:41:39.808Z,86.76
2022-11-10T09:42:39.772Z,86.55
2022-11-10T09:43:39.772Z,86.55
2022-11-10T09:44:39.781Z,86.55
2022-11-10T09:45:39.781Z,86.55
2022-11-10T09:46:39.758Z,86.35
2022-11-10T09:47:56.856Z,86.45
2022-11-10T09:48:41.714Z,86.45
2022-11-10T09:49:39.713Z,86.41
2022-11-10T09:50:39.715Z,86.41
2022-11-10T09:51:42.817Z,86.21
2022-11-10T09:52:40.666Z,86.21
2022-11-10T09:53:39.644Z,86.10
2022-11-10T09:54:39.684Z,86.00
2022-11-10T09:55:39.643Z,85.90
2022-11-10T09:56:39.622Z,85.66
2022-11-10T09:57:40.912Z,85.35
2022-11-10T09:58:39.594Z,85.45
2022-11-10T09:59:39.634Z,85.55
2022-11-10T10:00:39.565Z,85.45
2022-11-10T10:01:39.628Z,85.35
2022-11-10T10:02:41.018Z,85.25
2022-11-10T10:03:39.556Z,84.84
2022-11-10T10:04:43.214Z,84.84
2022-11-10T10:05:40.570Z,84.94
2022-11-10T10:07:04.803Z,85.14
2022-11-10T10:07:40.518Z,84.94
2022-11-10T10:08:39.487Z,85.05
2022-11-10T10:09:39.482Z,85.05
2022-11-10T10:10:39.458Z,85.21
2022-11-10T10:11:39.499Z,85.11
2022-11-10T10:12:39.438Z,84.59
2022-11-10T10:13:39.428Z,84.50
2022-11-10T10:14:39.423Z,84.50
2022-11-10T10:15:39.399Z,84.50
2022-11-10T10:16:39.398Z,84.50
2022-11-10T10:17:41.365Z,84.59
2022-11-10T10:18:39.379Z,84.39
2022-11-10T10:19:39.996Z,84.39
2022-11-10T10:20:39.361Z,84.39
2022-11-10T10:21:39.339Z,84.25
2022-11-10T10:22:39.342Z,84.15
2022-11-10T10:24:07.695Z,83.64
2022-11-10T10:24:40.341Z,83.64
2022-11-10T10:25:39.304Z,83.74
2022-11-10T10:26:39.312Z,83.84
2022-11-10T10:27:39.274Z,83.84
2022-11-10T10:28:39.263Z,83.84
2022-11-10T10:29:39.252Z,83.84
2022-11-10T10:30:39.235Z,83.91
2022-11-10T10:31:39.223Z,83.70
2022-11-10T10:32:39.266Z,83.50
2022-11-10T10:33:39.205Z,83.40
2022-11-10T10:34:39.196Z,83.50
2022-11-10T10:35:41.769Z,83.20
2022-11-10T10:36:39.175Z,83.40
2022-11-10T10:37:39.421Z,83.29
2022-11-10T10:38:39.166Z,83.50
2022-11-10T10:39:39.137Z,83.60
2022-11-10T10:40:39.156Z,83.70
2022-11-10T10:41:39.118Z,83.60
2022-11-10T10:42:39.143Z,82.89
2022-11-10T10:43:39.105Z,82.54
2022-11-10T10:44:39.183Z,82.38
2022-11-10T10:45:39.135Z,82.48
2022-11-10T10:46:39.090Z,82.68
2022-11-10T10:47:39.998Z,82.68
2022-11-10T10:48:39.042Z,82.79
2022-11-10T10:49:39.069Z,82.99
2022-11-10T10:50:40.469Z,82.89
2022-11-10T10:51:39.131Z,82.54
2022-11-10T10:52:39.943Z,82.54
2022-11-10T10:53:38.991Z,82.75
2022-11-10T10:54:38.959Z,82.75
2022-11-10T10:55:38.980Z,82.54
2022-11-10T10:56:38.951Z,82.65
2022-11-10T10:57:38.941Z,82.65
2022-11-10T10:58:38.919Z,82.54
2022-11-10T10:59:38.929Z,82.10
2022-11-10T11:00:38.893Z,81.59
2022-11-10T11:01:39.081Z,81.49
2022-11-10T11:02:38.874Z,81.39
2022-11-10T11:03:38.930Z,81.09
2022-11-10T11:04:38.869Z,81.09
2022-11-10T11:05:38.897Z,81.19
2022-11-10T11:06:38.895Z,80.88
2022-11-10T11:07:38.829Z,80.98
2022-11-10T11:08:38.819Z,80.88
2022-11-10T11:09:38.796Z,80.58
2022-11-10T11:10:38.793Z,80.37
2022-11-10T11:11:38.812Z,80.27
2022-11-10T11:12:38.775Z,80.17
2022-11-10T11:13:38.760Z,80.07
2022-11-10T11:14:43.328Z,79.97
2022-11-10T11:15:39.723Z,80.37
2022-11-10T11:16:38.754Z,80.17
2022-11-10T11:17:38.749Z,80.24
2022-11-10T11:18:39.670Z,80.24
2022-11-10T11:19:38.687Z,79.93
2022-11-10T11:20:38.671Z,79.93
2022-11-10T11:21:38.680Z,79.83
2022-11-10T11:22:38.678Z,79.63
2022-11-10T11:23:38.637Z,79.63
2022-11-10T11:24:38.624Z,79.63
2022-11-10T11:25:38.630Z,79.83
2022-11-10T11:26:38.636Z,79.79
2022-11-10T11:27:38.597Z,79.99
2022-11-10T11:28:39.524Z,79.90
2022-11-10T11:29:38.611Z,79.49
2022-11-10T11:30:38.570Z,78.67
2022-11-10T11:31:42.890Z,78.67
2022-11-10T11:32:38.562Z,78.98
2022-11-10T11:33:38.529Z,78.88
2022-11-10T11:34:38.554Z,78.64
2022-11-10T11:35:38.522Z,78.23
2022-11-10T11:36:38.492Z,78.13
2022-11-10T11:37:38.482Z,78.13
2022-11-10T11:38:38.952Z,78.23
2022-11-10T11:39:38.496Z,78.03
2022-11-10T11:40:38.445Z,77.93
2022-11-10T11:41:38.452Z,78.03
2022-11-10T11:42:38.414Z,78.44
2022-11-10T11:43:38.422Z,78.23
2022-11-10T11:44:38.419Z,78.09
2022-11-10T11:45:38.393Z,77.59
2022-11-10T11:46:38.402Z,77.38
2022-11-10T11:47:38.365Z,77.08
2022-11-10T11:48:38.357Z,76.37
2022-11-10T11:49:38.348Z,76.17
2022-11-10T11:50:38.373Z,76.47
2022-11-10T11:51:38.345Z,76.57
2022-11-10T11:52:38.407Z,76.57
2022-11-10T11:53:38.295Z,76.37
2022-11-10T11:54:38.276Z,76.67
2022-11-10T11:55:38.278Z,75.82
2022-11-10T11:56:38.287Z,75.82
2022-11-10T11:57:40.210Z,75.93
2022-11-10T11:58:38.252Z,76.03
2022-11-10T11:59:38.237Z,75.82
2022-11-10T12:00:38.305Z,75.73
2022-11-10T12:01:38.219Z,75.49
2022-11-10T12:02:38.287Z,75.18
2022-11-10T12:03:38.253Z,74.98
2022-11-10T12:04:38.176Z,74.98
2022-11-10T12:05:38.158Z,74.04
2022-11-10T12:06:38.187Z,73.12
2022-11-10T12:07:38.162Z,73.02
2022-11-10T12:08:38.392Z,72.72
2022-11-10T12:09:38.123Z,72.52
2022-11-10T12:10:42.821Z,72.11
2022-11-10T12:11:39.141Z,72.01
2022-11-10T12:12:38.102Z,72.41
2022-11-10T12:13:38.084Z,72.61
2022-11-10T12:14:38.056Z,72.78
2022-11-10T12:15:38.056Z,72.68
2022-11-10T12:16:38.048Z,73.09
2022-11-10T12:17:38.042Z,72.99
2022-11-10T12:18:38.021Z,72.48
2022-11-10T12:19:38.008Z,71.47
2022-11-10T12:20:37.998Z,71.47
2022-11-10T12:21:38.023Z,71.26
2022-11-10T12:22:37.966Z,71.06
2022-11-10T12:23:37.966Z,70.96
2022-11-10T12:24:37.943Z,70.86
2022-11-10T12:25:37.936Z,71.06
2022-11-10T12:26:37.935Z,70.96
2022-11-10T12:27:37.934Z,70.45
2022-11-10T12:28:37.904Z,70.56
2022-11-10T12:29:37.917Z,69.95
2022-11-10T12:30:37.907Z,70.15
2022-11-10T12:31:37.870Z,70.22
2022-11-10T12:32:37.993Z,69.92
2022-11-10T12:33:37.856Z,69.48
2022-11-10T12:34:37.901Z,68.67
2022-11-10T12:35:37.824Z,68.54
2022-11-10T12:36:37.809Z,68.54
2022-11-10T12:37:37.812Z,68.54
2022-11-10T12:38:37.787Z,68.23
2022-11-10T12:39:37.810Z,67.69
2022-11-10T12:40:41.594Z,67.49
2022-11-10T12:41:37.769Z,67.29
2022-11-10T12:42:37.760Z,67.60
2022-11-10T12:43:37.756Z,67.39
2022-11-10T12:44:37.748Z,67.26
2022-11-10T12:45:37.752Z,67.06
2022-11-10T12:46:38.641Z,66.86
2022-11-10T12:47:37.692Z,66.25
2022-11-10T12:48:37.700Z,65.88
2022-11-10T12:49:38.623Z,65.78
2022-11-10T12:50:37.656Z,65.78
2022-11-10T12:51:37.657Z,65.88
2022-11-10T12:52:37.639Z,65.57